»·PEaware :: WAT463 KSNA-KSAN

WAT463 :: KSNA-KSAN

FLIGHT INFORMATION

Flight Status: Arrived
Operator:
Walker Air Transport
More flights by this operator :: More flights under this callsign
Pilot: Dan S. (31216)
Aircraft: CESSNA 182 SKYLANE
(C182)
More flights by this aircraft type
Origin: KSNA John Wayne-Orange Co
United States
Destination: KSAN San Diego Intl-Lindbergh
United States
More flights between these airports :: More routes between these airports
Route: V23 MZB
File this flight plan on PilotEdge
Remarks:
Altitude:
(Current/Filed)
5,000ft
Speed:
(Current/Filed)
145kts
Departed: 13-Jan-21 09:49 PM
Arrived: 13-Jan-21 10:22 PM
Distance/Time
Traveled:
66nm/0:32
Distance/Time
To Go:
Arrived

Flight Plot

Page will automatically refresh every two minutes.


Map Options




Map Legend


Flown Route
Filed Route
Departure Airport
Arrival Airport
Navaid (VOR, NDB)
Fix

Horizontal Profiles

Position Reports

Time Latitude Longitude Heading Altitude Ground
Speed
13-Jan-21 21:24 33.671863 -117.867205 206 62ft 0kts
13-Jan-21 21:26 33.671863 -117.867205 206 62ft 0kts
13-Jan-21 21:26 33.671863 -117.867205 206 62ft 0kts
13-Jan-21 21:27 33.671863 -117.867205 206 62ft 0kts
13-Jan-21 21:28 33.671863 -117.867205 206 62ft 0kts
13-Jan-21 21:29 33.671863 -117.867206 206 62ft 0kts
13-Jan-21 21:30 33.671863 -117.867206 206 62ft 0kts
13-Jan-21 21:31 33.671863 -117.867206 206 62ft 0kts
13-Jan-21 21:32 33.671863 -117.867206 206 62ft 0kts
13-Jan-21 21:33 33.671863 -117.867206 206 62ft 0kts
13-Jan-21 21:34 33.671863 -117.867206 206 62ft 0kts
13-Jan-21 21:35 33.671863 -117.867206 206 62ft 0kts
13-Jan-21 21:36 33.671863 -117.867206 206 62ft 0kts
13-Jan-21 21:37 33.671863 -117.867206 206 62ft 0kts
13-Jan-21 21:38 33.671863 -117.867206 206 62ft 0kts
13-Jan-21 21:39 33.671863 -117.867206 206 62ft 0kts
13-Jan-21 21:40 33.671863 -117.867206 206 62ft 0kts
13-Jan-21 21:41 33.671863 -117.867206 206 62ft 0kts
13-Jan-21 21:42 33.671863 -117.867206 206 62ft 0kts
13-Jan-21 21:43 33.671863 -117.867206 206 62ft 0kts
13-Jan-21 21:44 33.673236 -117.867087 39 62ft 14kts
13-Jan-21 21:45 33.676697 -117.864842 27 62ft 20kts
13-Jan-21 21:46 33.680657 -117.863091 297 62ft 0kts
13-Jan-21 21:47 33.680658 -117.863091 297 62ft 0kts
13-Jan-21 21:48 33.679023 -117.864855 206 62ft 57kts
13-Jan-21 21:49 33.657861 -117.874300 187 903ft 90kts
13-Jan-21 21:50 33.631904 -117.878150 187 1597ft 96kts
13-Jan-21 21:51 33.605055 -117.881503 169 2274ft 99kts
13-Jan-21 21:52 33.585610 -117.858911 129 3034ft 99kts
13-Jan-21 21:53 33.566777 -117.834079 130 3766ft 101kts
13-Jan-21 21:54 33.547389 -117.809003 130 4475ft 103kts
13-Jan-21 21:55 33.526906 -117.782678 131 5004ft 124kts
13-Jan-21 21:56 33.500440 -117.748937 131 5000ft 146kts
13-Jan-21 21:57 33.472341 -117.712831 130 5000ft 148kts
13-Jan-21 21:58 33.444099 -117.676683 130 5000ft 149kts
13-Jan-21 21:59 33.415737 -117.640467 130 5007ft 148kts
13-Jan-21 22:00 33.387400 -117.604364 130 5009ft 149kts
13-Jan-21 22:01 33.358753 -117.567848 130 5009ft 151kts
13-Jan-21 22:02 33.329709 -117.530892 130 4991ft 152kts
13-Jan-21 22:03 33.300693 -117.494041 130 4991ft 152kts
13-Jan-21 22:04 33.271789 -117.457321 130 4991ft 152kts
13-Jan-21 22:05 33.242367 -117.420898 145 4977ft 154kts
13-Jan-21 22:06 33.202830 -117.402221 157 4982ft 154kts
13-Jan-21 22:07 33.162069 -117.384651 158 4982ft 154kts
13-Jan-21 22:08 33.121694 -117.367639 158 4982ft 154kts
13-Jan-21 22:09 33.081172 -117.350610 158 4982ft 154kts
13-Jan-21 22:10 33.040756 -117.333642 159 4983ft 154kts
13-Jan-21 22:11 33.000260 -117.316654 159 4983ft 154kts
13-Jan-21 22:12 32.959761 -117.299679 159 4983ft 154kts
13-Jan-21 22:13 32.919380 -117.282494 156 4948ft 154kts
13-Jan-21 22:14 32.879897 -117.260002 152 4340ft 163kts
13-Jan-21 22:15 32.841845 -117.228849 139 3336ft 160kts
13-Jan-21 22:16 32.808072 -117.195747 138 2395ft 157kts
13-Jan-21 22:17 32.776914 -117.161520 136 1758ft 145kts
13-Jan-21 22:18 32.749357 -117.139455 175 1412ft 98kts
13-Jan-21 22:19 32.730297 -117.155458 250 700ft 83kts
13-Jan-21 22:20 32.731273 -117.180279 285 27ft 62kts
13-Jan-21 22:21 32.734056 -117.188057 42 23ft 6kts
13-Jan-21 22:22 32.732963 -117.182488 105 23ft 21kts
13-Jan-21 22:23 32.733554 -117.178963 124 23ft 8kts
13-Jan-21 22:24 32.733438 -117.178607 18 23ft 0kts
13-Jan-21 22:25 32.733438 -117.178607 18 23ft 0kts
13-Jan-21 22:26 32.733438 -117.178607 18 23ft 0kts

Navigation Log

Ident Type
Flight plan parsing failed, navigation log unavailable